createdAt,value
2023-04-10T00:01:36.058Z,69.34
2023-04-10T00:04:07.348Z,69.26
2023-04-10T00:06:38.420Z,69.06
2023-04-10T00:09:09.570Z,69.00
2023-04-10T00:11:40.544Z,69.05
2023-04-10T00:14:12.524Z,68.93
2023-04-10T00:16:43.659Z,69.05
2023-04-10T00:19:14.824Z,68.95
2023-04-10T00:21:46.465Z,69.14
2023-04-10T00:24:17.360Z,69.03
2023-04-10T00:26:50.736Z,69.17
2023-04-10T00:29:22.286Z,69.43
2023-04-10T00:31:53.549Z,69.41
2023-04-10T00:34:25.946Z,69.22
2023-04-10T00:36:57.474Z,69.30
2023-04-10T00:39:29.212Z,69.44
2023-04-10T00:42:01.767Z,69.58
2023-04-10T00:44:37.882Z,69.54
2023-04-10T00:47:09.682Z,69.47
2023-04-10T00:49:41.646Z,69.74
2023-04-10T00:52:13.106Z,69.63
2023-04-10T00:54:44.356Z,69.94
2023-04-10T00:57:15.787Z,70.01
2023-04-10T00:59:49.170Z,69.88
2023-04-10T01:02:20.745Z,69.76
2023-04-10T01:04:52.141Z,70.19
2023-04-10T01:07:37.643Z,70.14
2023-04-10T01:10:19.259Z,70.08
2023-04-10T01:13:05.734Z,70.38
2023-04-10T01:15:44.296Z,70.15
2023-04-10T01:18:23.100Z,70.11
2023-04-10T01:20:54.420Z,70.07
2023-04-10T01:23:54.465Z,70.07
2023-04-10T01:26:40.854Z,70.15
2023-04-10T01:29:19.694Z,70.31
2023-04-10T01:31:55.446Z,70.23
2023-04-10T01:34:29.257Z,70.14
2023-04-10T01:37:05.398Z,70.39
2023-04-10T01:39:41.163Z,70.10
2023-04-10T01:42:15.669Z,69.98
2023-04-10T01:44:50.192Z,69.96
2023-04-10T01:47:21.870Z,69.88
2023-04-10T01:49:54.441Z,69.95
2023-04-10T01:52:26.591Z,70.20
2023-04-10T01:55:10.968Z,69.98
2023-04-10T01:57:49.295Z,70.09
2023-04-10T02:00:21.039Z,70.01
2023-04-10T02:02:52.217Z,70.14
2023-04-10T02:05:25.531Z,70.02
2023-04-10T02:08:03.640Z,70.28
2023-04-10T02:10:43.447Z,70.41
2023-04-10T02:13:15.879Z,70.26
2023-04-10T02:15:51.529Z,70.40
2023-04-10T02:18:24.001Z,70.29
2023-04-10T02:20:55.903Z,70.27
2023-04-10T02:23:27.098Z,70.32
2023-04-10T02:25:59.234Z,70.32
2023-04-10T02:28:30.322Z,70.22
2023-04-10T02:31:02.128Z,70.10
2023-04-10T02:33:33.170Z,70.24
2023-04-10T02:36:05.354Z,70.07
2023-04-10T02:38:39.229Z,69.86
2023-04-10T02:41:10.479Z,69.78
2023-04-10T02:43:41.890Z,69.59
2023-04-10T02:46:12.895Z,69.62
2023-04-10T02:48:44.009Z,69.78
2023-04-10T02:51:17.392Z,69.71
2023-04-10T02:53:50.049Z,69.75
2023-04-10T02:56:30.420Z,69.78
2023-04-10T02:59:02.652Z,69.22
2023-04-10T03:01:34.290Z,69.19
2023-04-10T03:04:05.491Z,69.02
2023-04-10T03:06:40.969Z,68.70
2023-04-10T03:09:12.152Z,68.72
2023-04-10T03:11:43.154Z,68.55
2023-04-10T03:14:14.117Z,68.54
2023-04-10T03:16:45.112Z,68.90
2023-04-10T03:19:16.379Z,68.98
2023-04-10T03:21:48.252Z,69.36
2023-04-10T03:24:19.229Z,69.47
2023-04-10T03:26:50.716Z,69.54
2023-04-10T03:29:22.629Z,69.85
2023-04-10T03:31:53.745Z,70.04
2023-04-10T03:34:24.794Z,70.10
2023-04-10T03:36:56.154Z,69.97
2023-04-10T03:39:27.309Z,69.55
2023-04-10T03:41:58.413Z,69.53
2023-04-10T03:44:29.520Z,69.55
2023-04-10T03:47:01.482Z,69.75
2023-04-10T03:49:32.852Z,69.83
2023-04-10T03:52:08.326Z,69.97
2023-04-10T03:54:40.051Z,70.05
2023-04-10T03:57:12.690Z,70.12
2023-04-10T03:59:43.681Z,70.07
2023-04-10T04:02:16.119Z,69.87
2023-04-10T04:04:48.298Z,69.99
2023-04-10T04:07:45.364Z,69.70
2023-04-10T04:10:45.625Z,69.71
2023-04-10T04:13:27.425Z,69.82
2023-04-10T04:16:12.828Z,69.84
2023-04-10T04:18:56.013Z,69.93
2023-04-10T04:21:37.906Z,69.80
2023-04-10T04:24:23.021Z,69.91
2023-04-10T04:27:00.019Z,69.85
2023-04-10T04:29:51.408Z,70.02
2023-04-10T04:32:51.686Z,70.85
2023-04-10T04:35:46.543Z,71.13
2023-04-10T04:38:25.045Z,70.98
2023-04-10T04:41:02.064Z,70.73
2023-04-10T04:44:04.136Z,69.78
2023-04-10T04:46:52.628Z,68.90
2023-04-10T04:49:32.271Z,68.07
2023-04-10T04:52:29.657Z,67.05
2023-04-10T04:55:12.573Z,66.69
2023-04-10T04:58:22.137Z,66.09
2023-04-10T05:01:01.417Z,65.67
2023-04-10T05:04:11.716Z,65.31
2023-04-10T05:07:11.249Z,64.29
2023-04-10T05:09:51.835Z,63.58
2023-04-10T05:12:45.665Z,62.51
2023-04-10T05:15:27.020Z,61.82
2023-04-10T05:18:37.634Z,60.75
2023-04-10T05:21:23.345Z,59.84
2023-04-10T05:24:29.634Z,58.53
2023-04-10T05:27:15.834Z,57.67
2023-04-10T05:30:05.874Z,56.79
2023-04-10T05:32:42.746Z,55.80
2023-04-10T05:35:26.401Z,54.88
2023-04-10T05:38:04.952Z,53.99
2023-04-10T05:40:48.968Z,53.39
2023-04-10T05:43:40.733Z,52.40
2023-04-10T05:46:32.171Z,51.36
2023-04-10T05:49:14.402Z,50.12
2023-04-10T05:52:12.653Z,49.55
2023-04-10T05:54:44.558Z,49.11
2023-04-10T05:57:40.139Z,48.82
2023-04-10T06:00:37.312Z,48.52
2023-04-10T06:03:30.868Z,47.95
2023-04-10T06:06:04.799Z,47.34
2023-04-10T06:08:36.558Z,46.79
2023-04-10T06:11:08.485Z,46.34
2023-04-10T06:13:39.650Z,45.55
2023-04-10T06:16:11.647Z,44.98
2023-04-10T06:18:44.795Z,44.36
2023-04-10T06:21:15.859Z,43.83
2023-04-10T06:23:49.387Z,43.30
2023-04-10T06:26:23.113Z,42.51
2023-04-10T06:28:56.491Z,42.19
2023-04-10T06:31:28.326Z,41.58
2023-04-10T06:33:59.680Z,41.31
2023-04-10T06:36:31.269Z,40.19
2023-04-10T06:39:09.701Z,39.95
2023-04-10T06:41:40.746Z,39.89
2023-04-10T06:44:20.204Z,39.18
2023-04-10T06:46:53.842Z,38.64
2023-04-10T06:49:26.585Z,37.90
2023-04-10T06:51:57.578Z,37.01
2023-04-10T06:54:30.702Z,36.77
2023-04-10T06:57:02.659Z,36.71
2023-04-10T06:59:39.855Z,36.54
2023-04-10T07:02:11.762Z,37.00
2023-04-10T07:04:43.289Z,36.83
2023-04-10T07:07:16.025Z,36.51
2023-04-10T07:09:52.282Z,35.98
2023-04-10T07:12:23.750Z,35.52
2023-04-10T07:14:57.467Z,35.01
2023-04-10T07:17:34.030Z,34.46
2023-04-10T07:20:32.998Z,34.03
2023-04-10T07:23:14.330Z,33.22
2023-04-10T07:25:45.855Z,33.19
2023-04-10T07:28:19.368Z,33.01
2023-04-10T07:30:50.954Z,32.55
2023-04-10T07:33:22.149Z,31.98
2023-04-10T07:35:53.459Z,31.58
2023-04-10T07:38:25.371Z,31.63
2023-04-10T07:41:05.788Z,31.40
2023-04-10T07:43:36.902Z,31.28
2023-04-10T07:46:08.745Z,31.18
2023-04-10T07:48:58.591Z,31.07
2023-04-10T07:51:31.654Z,31.39
2023-04-10T07:54:04.732Z,31.28
2023-04-10T07:56:44.564Z,31.17
2023-04-10T07:59:20.947Z,31.31
2023-04-10T08:01:53.158Z,31.68
2023-04-10T08:04:25.538Z,31.65
2023-04-10T08:06:57.044Z,31.57
2023-04-10T08:09:44.609Z,31.45
2023-04-10T08:15:36.770Z,32.10
2023-04-10T08:18:08.580Z,32.62
2023-04-10T08:20:39.592Z,33.34
2023-04-10T08:23:21.358Z,33.42
2023-04-10T08:25:52.850Z,33.64
2023-04-10T08:28:24.015Z,34.14
2023-04-10T08:30:56.995Z,34.09
2023-04-10T08:33:34.502Z,34.53
2023-04-10T08:36:20.408Z,34.77
2023-04-10T08:38:51.950Z,34.78
2023-04-10T08:41:24.338Z,34.61
2023-04-10T08:43:56.477Z,34.89
2023-04-10T08:46:36.069Z,35.07
2023-04-10T08:49:08.520Z,34.88
2023-04-10T08:51:44.163Z,34.76
2023-04-10T08:54:19.706Z,34.94
2023-04-10T08:56:54.944Z,34.79
2023-04-10T08:59:26.201Z,34.71
2023-04-10T09:01:57.592Z,34.99
2023-04-10T09:04:29.442Z,35.65
2023-04-10T09:07:01.373Z,35.41
2023-04-10T09:09:34.406Z,35.74
2023-04-10T09:12:06.964Z,35.91
2023-04-10T09:14:39.361Z,35.39
2023-04-10T09:17:23.113Z,35.21
2023-04-10T09:19:56.360Z,35.20
2023-04-10T09:22:40.970Z,34.93
2023-04-10T09:25:57.299Z,35.19
2023-04-10T09:28:28.448Z,35.66
2023-04-10T09:31:01.703Z,36.32
2023-04-10T09:33:34.842Z,36.08
2023-04-10T09:36:14.182Z,36.19
2023-04-10T09:38:52.563Z,35.93
2023-04-10T09:41:25.045Z,36.21
2023-04-10T09:44:09.052Z,36.68
2023-04-10T09:46:40.318Z,37.11
2023-04-10T09:49:11.450Z,36.73
2023-04-10T09:51:44.986Z,36.38
2023-04-10T09:54:16.713Z,35.95
2023-04-10T09:56:51.283Z,35.73
2023-04-10T09:59:22.460Z,36.16
2023-04-10T10:01:54.148Z,36.04
2023-04-10T10:04:25.949Z,35.89
2023-04-10T10:07:00.131Z,35.92
2023-04-10T10:09:31.657Z,36.34
2023-04-10T10:12:05.204Z,36.00
2023-04-10T10:14:40.487Z,35.87
2023-04-10T10:17:17.852Z,36.02
2023-04-10T10:19:55.715Z,36.25
2023-04-10T10:22:30.578Z,36.42
2023-04-10T10:25:06.267Z,36.72
2023-04-10T10:27:41.258Z,36.96
2023-04-10T10:30:29.598Z,36.75
2023-04-10T10:33:03.999Z,36.48
2023-04-10T10:35:45.467Z,36.27
2023-04-10T10:38:17.931Z,36.47
2023-04-10T10:40:57.083Z,36.83
2023-04-10T10:43:37.049Z,37.45
2023-04-10T10:46:17.966Z,37.62
2023-04-10T10:49:07.606Z,38.13
2023-04-10T10:51:55.143Z,38.51
2023-04-10T10:54:34.602Z,38.92
2023-04-10T10:57:44.676Z,38.54
2023-04-10T11:00:20.281Z,38.38
2023-04-10T11:03:33.126Z,38.10
2023-04-10T11:06:07.338Z,38.13
2023-04-10T11:08:40.104Z,38.11
2023-04-10T11:11:20.003Z,38.40
2023-04-10T11:14:24.994Z,38.66
2023-04-10T11:16:56.217Z,38.67
2023-04-10T11:19:27.816Z,38.72
2023-04-10T11:22:08.112Z,38.86
2023-04-10T11:25:11.429Z,38.82
2023-04-10T11:27:49.365Z,38.70
2023-04-10T11:30:34.076Z,38.29
2023-04-10T11:33:07.004Z,38.39
2023-04-10T11:35:38.218Z,38.27
2023-04-10T11:38:19.600Z,38.23
2023-04-10T11:41:06.717Z,38.21
2023-04-10T11:43:38.156Z,38.26
2023-04-10T11:46:10.276Z,38.26
2023-04-10T11:48:41.802Z,37.97
2023-04-10T11:51:15.744Z,37.93
2023-04-10T11:53:52.390Z,37.93
2023-04-10T11:56:24.273Z,37.87
2023-04-10T11:58:57.222Z,37.65
2023-04-10T12:01:28.373Z,37.61
2023-04-10T12:04:08.275Z,37.60
2023-04-10T12:06:53.302Z,37.33
2023-04-10T12:09:25.518Z,37.48
2023-04-10T12:12:05.664Z,37.20
2023-04-10T12:14:44.704Z,37.33
2023-04-10T12:17:16.276Z,37.47
2023-04-10T12:19:48.922Z,37.72
2023-04-10T12:22:20.376Z,37.74
2023-04-10T12:24:54.463Z,37.82
2023-04-10T12:27:29.425Z,37.85
2023-04-10T12:30:01.802Z,37.67
2023-04-10T12:32:36.009Z,37.95
2023-04-10T12:35:08.344Z,38.18
2023-04-10T12:41:38.586Z,38.38
2023-04-10T12:44:13.678Z,38.37
2023-04-10T12:46:45.966Z,38.47
2023-04-10T12:49:21.182Z,38.54
2023-04-10T12:51:53.915Z,38.25
2023-04-10T12:54:33.399Z,38.36
2023-04-10T13:00:12.833Z,38.15
2023-04-10T13:06:20.259Z,38.03
2023-04-10T13:08:53.076Z,37.98
2023-04-10T13:11:33.697Z,38.26
2023-04-10T13:14:06.025Z,38.25
2023-04-10T13:19:37.115Z,38.12
2023-04-10T13:22:08.626Z,38.32
2023-04-10T13:24:44.693Z,38.40
2023-04-10T13:27:19.181Z,38.43
2023-04-10T13:29:52.986Z,38.04
2023-04-10T13:32:47.732Z,37.85
2023-04-10T13:35:19.384Z,37.72
2023-04-10T13:38:27.613Z,37.80
2023-04-10T13:41:12.762Z,37.86
2023-04-10T13:43:46.521Z,38.07
2023-04-10T13:46:18.230Z,37.80
2023-04-10T13:48:51.687Z,37.97
2023-04-10T13:51:24.558Z,37.95
2023-04-10T13:53:59.075Z,38.18
2023-04-10T13:56:31.023Z,38.46
2023-04-10T13:59:02.753Z,38.31
2023-04-10T14:01:44.719Z,38.09
2023-04-10T14:04:16.185Z,38.10
2023-04-10T14:06:53.183Z,38.23
2023-04-10T14:09:24.640Z,37.96
2023-04-10T14:11:58.124Z,38.17
2023-04-10T14:14:29.368Z,38.40
2023-04-10T14:17:03.209Z,38.58
2023-04-10T14:19:39.339Z,38.95
2023-04-10T14:22:10.937Z,39.24
2023-04-10T14:24:44.088Z,39.29
2023-04-10T14:27:15.541Z,39.68
2023-04-10T14:29:54.210Z,39.92
2023-04-10T14:32:27.126Z,40.24
2023-04-10T14:34:58.858Z,40.64
2023-04-10T14:37:30.320Z,40.70
2023-04-10T14:40:06.884Z,40.92
2023-04-10T14:42:38.851Z,41.41
2023-04-10T14:45:11.961Z,41.88
2023-04-10T14:47:43.362Z,42.28
2023-04-10T14:50:14.991Z,42.71
2023-04-10T14:52:46.568Z,42.97
2023-04-10T14:55:17.561Z,42.81
2023-04-10T14:57:57.882Z,43.05
2023-04-10T15:00:29.866Z,43.34
2023-04-10T15:03:00.947Z,43.70
2023-04-10T15:05:32.107Z,43.80
2023-04-10T15:08:02.999Z,43.65
2023-04-10T15:10:33.916Z,43.73
2023-04-10T15:13:06.183Z,43.65
2023-04-10T15:15:37.478Z,43.55
2023-04-10T15:18:08.864Z,43.67
2023-04-10T15:20:39.961Z,43.82
2023-04-10T15:23:11.583Z,43.63
2023-04-10T15:25:42.785Z,43.17
2023-04-10T15:28:13.721Z,43.04
2023-04-10T15:30:48.919Z,43.14
2023-04-10T15:33:22.179Z,43.06
2023-04-10T15:35:53.460Z,43.31
2023-04-10T15:38:26.390Z,43.69
2023-04-10T15:40:57.790Z,43.90
2023-04-10T15:43:29.508Z,43.89
2023-04-10T15:46:03.075Z,44.06
2023-04-10T15:48:34.265Z,44.13
2023-04-10T15:51:08.464Z,44.32
2023-04-10T15:53:39.963Z,44.35
2023-04-10T15:56:34.385Z,44.41
2023-04-10T15:59:05.559Z,44.59
2023-04-10T16:01:36.741Z,44.55
2023-04-10T16:04:07.923Z,44.68
2023-04-10T16:06:38.900Z,44.76
2023-04-10T16:09:24.111Z,44.88
2023-04-10T16:11:57.947Z,44.87
2023-04-10T16:14:29.049Z,45.20
2023-04-10T16:17:00.122Z,45.57
2023-04-10T16:19:34.023Z,46.14
2023-04-10T16:22:05.086Z,46.44
2023-04-10T16:24:36.196Z,46.69
2023-04-10T16:27:08.534Z,46.94
2023-04-10T16:29:39.941Z,47.48
2023-04-10T16:32:10.973Z,47.60
2023-04-10T16:34:42.019Z,47.54
2023-04-10T16:37:13.141Z,47.69
2023-04-10T16:39:44.273Z,47.46
2023-04-10T16:42:15.231Z,47.36
2023-04-10T16:44:46.211Z,47.64
2023-04-10T16:47:17.305Z,47.90
2023-04-10T16:49:48.809Z,48.13
2023-04-10T16:52:20.071Z,47.87
2023-04-10T16:54:51.274Z,48.17
2023-04-10T16:57:22.456Z,48.26
2023-04-10T17:00:01.090Z,48.45
2023-04-10T17:02:34.198Z,48.60
2023-04-10T17:05:07.727Z,48.78
2023-04-10T17:07:39.084Z,49.00
2023-04-10T17:10:11.911Z,48.96
2023-04-10T17:12:46.031Z,49.34
2023-04-10T17:15:17.772Z,49.58
2023-04-10T17:17:49.197Z,49.64
2023-04-10T17:20:20.948Z,49.70
2023-04-10T17:22:54.516Z,49.75
2023-04-10T17:25:25.678Z,49.97
2023-04-10T17:27:56.838Z,49.97
2023-04-10T17:30:28.166Z,50.13
2023-04-10T17:32:59.871Z,50.31
2023-04-10T17:35:30.905Z,50.56
2023-04-10T17:38:02.736Z,50.71
2023-04-10T17:40:34.489Z,50.88
2023-04-10T17:43:05.745Z,50.87
2023-04-10T17:45:39.262Z,50.82
2023-04-10T17:48:14.704Z,50.89
2023-04-10T17:50:46.641Z,50.97
2023-04-10T17:53:20.364Z,50.94
2023-04-10T17:55:53.992Z,51.02
2023-04-10T17:58:28.208Z,51.15
2023-04-10T18:00:59.804Z,51.21
2023-04-10T18:03:31.332Z,51.47
2023-04-10T18:06:03.118Z,51.54
2023-04-10T18:08:35.474Z,51.43
2023-04-10T18:11:09.540Z,51.48
2023-04-10T18:13:41.684Z,51.53
2023-04-10T18:16:13.759Z,51.68
2023-04-10T18:18:45.126Z,51.91
2023-04-10T18:21:16.648Z,51.96
2023-04-10T18:23:47.880Z,51.97
2023-04-10T18:26:21.106Z,52.14
2023-04-10T18:28:52.281Z,52.12
2023-04-10T18:31:24.756Z,52.16
2023-04-10T18:34:04.106Z,52.25
2023-04-10T18:36:49.228Z,52.17
2023-04-10T18:39:21.116Z,52.27
2023-04-10T18:41:57.455Z,52.24
2023-04-10T18:44:30.013Z,52.22
2023-04-10T18:47:05.196Z,52.44
2023-04-10T18:49:36.656Z,52.33
2023-04-10T18:52:09.727Z,52.53
2023-04-10T18:54:41.502Z,52.59
2023-04-10T18:57:14.127Z,52.74
2023-04-10T18:59:45.044Z,52.81
2023-04-10T19:02:17.297Z,52.84
2023-04-10T19:04:51.729Z,53.07
2023-04-10T19:07:22.745Z,53.09
2023-04-10T19:09:54.371Z,53.26
2023-04-10T19:12:25.384Z,53.35
2023-04-10T19:14:56.290Z,53.51
2023-04-10T19:17:41.826Z,53.65
2023-04-10T19:20:18.542Z,53.68
2023-04-10T19:23:16.916Z,53.89
2023-04-10T19:25:48.495Z,54.08
2023-04-10T19:28:19.825Z,54.27
2023-04-10T19:30:51.002Z,54.43
2023-04-10T19:33:22.872Z,54.49
2023-04-10T19:35:53.863Z,54.57
2023-04-10T19:38:24.924Z,54.62
2023-04-10T19:40:57.112Z,54.56
2023-04-10T19:43:28.312Z,54.67
2023-04-10T19:45:59.983Z,54.75
2023-04-10T19:48:30.884Z,54.69
2023-04-10T19:51:07.829Z,54.75
2023-04-10T19:53:39.150Z,54.84
2023-04-10T19:56:10.957Z,54.77
2023-04-10T19:58:43.854Z,54.87
2023-04-10T20:01:17.253Z,55.01
2023-04-10T20:03:48.507Z,55.08
2023-04-10T20:06:21.702Z,55.14
2023-04-10T20:08:53.841Z,55.26
2023-04-10T20:11:30.913Z,55.32
2023-04-10T20:14:02.013Z,55.30
2023-04-10T20:17:02.671Z,55.37
2023-04-10T20:19:49.396Z,55.43
2023-04-10T20:22:20.463Z,55.57
2023-04-10T20:24:51.975Z,55.52
2023-04-10T20:27:24.806Z,55.71
2023-04-10T20:29:55.712Z,55.65
2023-04-10T20:32:27.849Z,55.82
2023-04-10T20:34:59.139Z,55.71
2023-04-10T20:37:30.045Z,55.82
2023-04-10T20:40:01.841Z,55.81
2023-04-10T20:42:32.753Z,55.81
2023-04-10T20:45:03.682Z,55.98
2023-04-10T20:47:34.597Z,56.02
2023-04-10T20:50:05.960Z,56.16
2023-04-10T20:52:38.846Z,56.31
2023-04-10T20:55:11.492Z,56.17
2023-04-10T20:57:42.404Z,56.35
2023-04-10T21:00:15.137Z,56.33
2023-04-10T21:02:46.307Z,56.55
2023-04-10T21:05:17.531Z,56.66
2023-04-10T21:07:49.199Z,56.60
2023-04-10T21:10:20.441Z,56.53
2023-04-10T21:12:51.327Z,56.68
2023-04-10T21:15:22.507Z,56.85
2023-04-10T21:17:53.461Z,57.02
2023-04-10T21:20:24.571Z,57.05
2023-04-10T21:22:55.512Z,57.15
2023-04-10T21:25:26.416Z,57.24
2023-04-10T21:27:57.336Z,57.38
2023-04-10T21:30:28.348Z,57.32
2023-04-10T21:32:59.431Z,57.32
2023-04-10T21:35:30.541Z,57.42
2023-04-10T21:38:02.224Z,57.55
2023-04-10T21:40:34.656Z,57.55
2023-04-10T21:43:06.414Z,57.53
2023-04-10T21:45:37.840Z,57.88
2023-04-10T21:48:09.061Z,58.05
2023-04-10T21:50:40.079Z,58.08
2023-04-10T21:53:11.138Z,58.08
2023-04-10T21:55:42.193Z,58.28
2023-04-10T21:58:13.066Z,58.25
2023-04-10T22:00:47.307Z,58.18
2023-04-10T22:03:20.616Z,58.25
2023-04-10T22:05:51.717Z,58.25
2023-04-10T22:08:22.645Z,58.50
2023-04-10T22:10:53.659Z,58.62
2023-04-10T22:13:30.942Z,58.62
2023-04-10T22:16:03.030Z,58.63
2023-04-10T22:18:34.364Z,58.50
2023-04-10T22:21:05.375Z,58.51
2023-04-10T22:23:36.242Z,58.46
2023-04-10T22:26:07.711Z,58.56
2023-04-10T22:28:38.695Z,58.65
2023-04-10T22:31:17.293Z,58.95
2023-04-10T22:33:49.282Z,58.87
2023-04-10T22:36:20.276Z,59.10
2023-04-10T22:38:51.562Z,59.00
2023-04-10T22:41:22.493Z,59.02
2023-04-10T22:43:53.384Z,59.03
2023-04-10T22:46:24.482Z,59.16
2023-04-10T22:48:56.313Z,59.43
2023-04-10T22:51:27.998Z,59.31
2023-04-10T22:53:59.034Z,59.55
2023-04-10T22:56:29.975Z,59.54
2023-04-10T22:59:00.947Z,59.55
2023-04-10T23:01:31.946Z,59.60
2023-04-10T23:04:02.970Z,59.74
2023-04-10T23:06:34.070Z,59.68
2023-04-10T23:09:05.040Z,59.82
2023-04-10T23:11:37.257Z,59.78
2023-04-10T23:14:08.179Z,59.94
2023-04-10T23:16:39.091Z,59.92
2023-04-10T23:19:10.001Z,59.97
2023-04-10T23:21:40.913Z,60.08
2023-04-10T23:24:11.921Z,60.30
2023-04-10T23:26:42.890Z,60.44
2023-04-10T23:29:13.834Z,60.49
2023-04-10T23:31:45.249Z,60.65
2023-04-10T23:34:16.250Z,60.51
2023-04-10T23:36:47.199Z,60.41
2023-04-10T23:39:18.161Z,60.42
2023-04-10T23:41:49.051Z,60.59
2023-04-10T23:44:20.026Z,60.82
2023-04-10T23:46:51.006Z,60.82
2023-04-10T23:49:22.112Z,60.78
2023-04-10T23:51:53.107Z,61.02
2023-04-10T23:54:25.349Z,61.01
2023-04-10T23:56:56.366Z,61.08
2023-04-10T23:59:27.230Z,61.14
